Terminal Aerodrome Forecast
Issued by NWS

Home | Current Version | Previous Version | Text Only | Print | Product List | Glossary On
Versions: 1 2 3 4 5 6 7 8 9 10 11 12 13 14 15 16 17 18 19 20 21
000
FTUS43 KMQT 231100
TAFCMX
TAF
KCMX 231120Z 2312/2412 17007KT P6SM VCSH OVC045
     FM231500 18008KT P6SM -SHRA OVC025
     FM232000 19005KT P6SM VCSH OVC015
     FM240000 19004KT P6SM BKN020
     FM240400 22004KT P6SM SCT020
     FM240900 21004KT 6SM BR SCT003=

USA.gov is the U.S. government's official web portal to all federal, state and local government web resources and services.